CheckWX is a tool to help pilots better visualize weather data.  It is not intended as a substitute for an official pre-flight weather briefing.

06:02:17 UTC

KAEX METAR
Alexandria International Airport
Alexandria, Louisiana, USA
Current

9 mins ago

KAEX 120553Z 20003KT 8SM CLR 27/26 A2992 RMK AO2 SLP132 T02670256 10333 20267 403610244 56003 $
Observed
Jul-12 @ 05:53 UTC
Wind
  • 200° at 3 KTS
Visibility
8 SM
Flight Rules
VFR
Cloud Levels
  • Clear skies
Dewpoint
26°C / 79°F
Humidity
94%
Altimeter
29.92" Hg
Pressure
1013.22 hPa
Previous

1 hour ago

KAEX 120453Z 17003KT 9SM CLR 28/26 A2992 RMK AO2 SLP132 T02780256 $
Observed
Jul-12 @ 04:53 UTC
Wind
  • 170° at 3 KTS
Visibility
9 SM
Flight Rules
VFR
Cloud Levels
  • Clear skies
Temperature
28°C / 82°F
Dewpoint
26°C / 79°F
Humidity
89%
Altimeter
29.92" Hg
Pressure
1013.22 hPa
Previous

2 hours ago

KAEX 120353Z 00000KT 9SM CLR 28/26 A2992 RMK AO2 SLP133 T02830256 $
Observed
Jul-12 @ 03:53 UTC
Visibility
9 SM
Flight Rules
VFR
Cloud Levels
  • Clear skies
Temperature
28°C / 82°F
Dewpoint
26°C / 79°F
Humidity
89%
Altimeter
29.92" Hg
Pressure
1013.22 hPa